sensor_id;sensor_type;location;lat;lon;timestamp;P1;durP1;ratioP1;P2;durP2;ratioP2
13269;SDS011;6703;51.994;7.570;2023-05-07T00:00:39;15.15;;;9.73;;
13269;SDS011;6703;51.994;7.570;2023-05-07T00:03:08;15.20;;;8.57;;
13269;SDS011;6703;51.994;7.570;2023-05-07T00:05:39;15.55;;;9.23;;
13269;SDS011;6703;51.994;7.570;2023-05-07T00:08:07;14.43;;;8.88;;
13269;SDS011;6703;51.994;7.570;2023-05-07T00:10:35;15.57;;;8.93;;
13269;SDS011;6703;51.994;7.570;2023-05-07T00:13:03;13.20;;;8.00;;
13269;SDS011;6703;51.994;7.570;2023-05-07T00:15:31;14.40;;;7.90;;
13269;SDS011;6703;51.994;7.570;2023-05-07T00:17:58;13.77;;;8.10;;
13269;SDS011;6703;51.994;7.570;2023-05-07T00:20:26;14.00;;;8.10;;
13269;SDS011;6703;51.994;7.570;2023-05-07T00:22:55;14.48;;;8.48;;
13269;SDS011;6703;51.994;7.570;2023-05-07T00:25:23;18.77;;;8.60;;
13269;SDS011;6703;51.994;7.570;2023-05-07T00:27:51;13.18;;;8.77;;
13269;SDS011;6703;51.994;7.570;2023-05-07T00:30:19;13.10;;;8.10;;
13269;SDS011;6703;51.994;7.570;2023-05-07T00:32:47;15.33;;;8.40;;
13269;SDS011;6703;51.994;7.570;2023-05-07T00:35:15;13.02;;;8.13;;
13269;SDS011;6703;51.994;7.570;2023-05-07T00:37:43;15.38;;;8.43;;
13269;SDS011;6703;51.994;7.570;2023-05-07T00:40:12;14.57;;;7.82;;
13269;SDS011;6703;51.994;7.570;2023-05-07T00:42:40;12.45;;;7.40;;
13269;SDS011;6703;51.994;7.570;2023-05-07T00:45:13;12.90;;;6.82;;
13269;SDS011;6703;51.994;7.570;2023-05-07T00:47:41;10.13;;;6.57;;
13269;SDS011;6703;51.994;7.570;2023-05-07T00:50:09;12.00;;;6.82;;
13269;SDS011;6703;51.994;7.570;2023-05-07T00:52:39;10.93;;;6.23;;
13269;SDS011;6703;51.994;7.570;2023-05-07T00:55:07;13.48;;;6.97;;
13269;SDS011;6703;51.994;7.570;2023-05-07T00:57:38;10.48;;;6.45;;
13269;SDS011;6703;51.994;7.570;2023-05-07T01:00:07;9.77;;;6.60;;
13269;SDS011;6703;51.994;7.570;2023-05-07T01:02:37;11.20;;;6.80;;
13269;SDS011;6703;51.994;7.570;2023-05-07T01:05:05;14.93;;;7.47;;
13269;SDS011;6703;51.994;7.570;2023-05-07T01:07:36;13.07;;;7.25;;
13269;SDS011;6703;51.994;7.570;2023-05-07T01:10:04;11.70;;;6.95;;
13269;SDS011;6703;51.994;7.570;2023-05-07T01:12:33;14.55;;;7.03;;
13269;SDS011;6703;51.994;7.570;2023-05-07T01:15:03;8.68;;;5.75;;
13269;SDS011;6703;51.994;7.570;2023-05-07T01:17:32;14.45;;;6.97;;
13269;SDS011;6703;51.994;7.570;2023-05-07T01:20:01;13.13;;;7.55;;
13269;SDS011;6703;51.994;7.570;2023-05-07T01:22:32;14.07;;;7.10;;
13269;SDS011;6703;51.994;7.570;2023-05-07T01:25:00;15.00;;;7.85;;
13269;SDS011;6703;51.994;7.570;2023-05-07T01:27:28;14.75;;;8.30;;
13269;SDS011;6703;51.994;7.570;2023-05-07T01:32:57;16.83;;;8.53;;
13269;SDS011;6703;51.994;7.570;2023-05-07T01:35:27;22.52;;;8.73;;
13269;SDS011;6703;51.994;7.570;2023-05-07T01:38:01;17.45;;;8.70;;
13269;SDS011;6703;51.994;7.570;2023-05-07T01:40:30;19.37;;;8.67;;
13269;SDS011;6703;51.994;7.570;2023-05-07T01:42:58;17.23;;;9.35;;
13269;SDS011;6703;51.994;7.570;2023-05-07T01:45:26;21.75;;;9.63;;
13269;SDS011;6703;51.994;7.570;2023-05-07T01:47:54;20.55;;;9.73;;
13269;SDS011;6703;51.994;7.570;2023-05-07T01:50:22;24.13;;;9.82;;
13269;SDS011;6703;51.994;7.570;2023-05-07T01:52:50;21.48;;;10.25;;
13269;SDS011;6703;51.994;7.570;2023-05-07T01:55:20;28.10;;;12.13;;
13269;SDS011;6703;51.994;7.570;2023-05-07T01:57:47;24.80;;;11.33;;
13269;SDS011;6703;51.994;7.570;2023-05-07T02:00:15;29.60;;;12.43;;
13269;SDS011;6703;51.994;7.570;2023-05-07T02:02:43;26.02;;;12.13;;
13269;SDS011;6703;51.994;7.570;2023-05-07T02:05:11;29.40;;;12.03;;
13269;SDS011;6703;51.994;7.570;2023-05-07T02:07:39;27.35;;;11.95;;
13269;SDS011;6703;51.994;7.570;2023-05-07T02:10:28;28.45;;;11.73;;
13269;SDS011;6703;51.994;7.570;2023-05-07T02:12:56;29.23;;;12.55;;
13269;SDS011;6703;51.994;7.570;2023-05-07T02:15:23;25.48;;;12.07;;
13269;SDS011;6703;51.994;7.570;2023-05-07T02:17:58;27.00;;;11.97;;
13269;SDS011;6703;51.994;7.570;2023-05-07T02:20:27;29.98;;;13.10;;
13269;SDS011;6703;51.994;7.570;2023-05-07T02:22:55;27.70;;;13.48;;
13269;SDS011;6703;51.994;7.570;2023-05-07T02:25:23;30.83;;;13.23;;
13269;SDS011;6703;51.994;7.570;2023-05-07T02:27:52;28.77;;;12.75;;
13269;SDS011;6703;51.994;7.570;2023-05-07T02:30:20;29.65;;;14.10;;
13269;SDS011;6703;51.994;7.570;2023-05-07T02:32:48;28.48;;;14.07;;
13269;SDS011;6703;51.994;7.570;2023-05-07T02:35:16;34.67;;;15.85;;
13269;SDS011;6703;51.994;7.570;2023-05-07T02:37:44;30.95;;;14.02;;
13269;SDS011;6703;51.994;7.570;2023-05-07T02:40:12;30.10;;;14.90;;
13269;SDS011;6703;51.994;7.570;2023-05-07T02:42:40;33.33;;;14.75;;
13269;SDS011;6703;51.994;7.570;2023-05-07T02:45:09;28.17;;;14.40;;
13269;SDS011;6703;51.994;7.570;2023-05-07T02:47:37;31.45;;;15.27;;
13269;SDS011;6703;51.994;7.570;2023-05-07T02:50:06;38.35;;;16.13;;
13269;SDS011;6703;51.994;7.570;2023-05-07T02:52:35;30.85;;;15.07;;
13269;SDS011;6703;51.994;7.570;2023-05-07T02:55:03;38.00;;;16.33;;
13269;SDS011;6703;51.994;7.570;2023-05-07T02:57:31;47.80;;;16.40;;
13269;SDS011;6703;51.994;7.570;2023-05-07T02:59:59;38.08;;;16.35;;
13269;SDS011;6703;51.994;7.570;2023-05-07T03:02:29;34.25;;;15.02;;
13269;SDS011;6703;51.994;7.570;2023-05-07T03:04:57;35.72;;;16.58;;
13269;SDS011;6703;51.994;7.570;2023-05-07T03:07:24;40.03;;;17.27;;
13269;SDS011;6703;51.994;7.570;2023-05-07T03:09:52;33.90;;;16.05;;
13269;SDS011;6703;51.994;7.570;2023-05-07T03:12:20;32.33;;;16.40;;
13269;SDS011;6703;51.994;7.570;2023-05-07T03:14:48;36.85;;;17.02;;
13269;SDS011;6703;51.994;7.570;2023-05-07T03:17:16;36.95;;;16.25;;
13269;SDS011;6703;51.994;7.570;2023-05-07T03:19:45;32.30;;;15.98;;
13269;SDS011;6703;51.994;7.570;2023-05-07T03:22:12;38.72;;;16.70;;
13269;SDS011;6703;51.994;7.570;2023-05-07T03:24:40;37.25;;;15.90;;
13269;SDS011;6703;51.994;7.570;2023-05-07T03:27:08;40.90;;;17.45;;
13269;SDS011;6703;51.994;7.570;2023-05-07T03:29:36;41.92;;;18.00;;
13269;SDS011;6703;51.994;7.570;2023-05-07T03:32:04;37.58;;;17.33;;
13269;SDS011;6703;51.994;7.570;2023-05-07T03:34:32;38.78;;;17.73;;
13269;SDS011;6703;51.994;7.570;2023-05-07T03:37:01;37.90;;;17.25;;
13269;SDS011;6703;51.994;7.570;2023-05-07T03:39:29;34.42;;;16.73;;
13269;SDS011;6703;51.994;7.570;2023-05-07T03:41:57;36.38;;;16.90;;
13269;SDS011;6703;51.994;7.570;2023-05-07T03:44:25;32.25;;;16.08;;
13269;SDS011;6703;51.994;7.570;2023-05-07T03:46:53;38.15;;;17.02;;
13269;SDS011;6703;51.994;7.570;2023-05-07T03:49:21;32.88;;;15.57;;
13269;SDS011;6703;51.994;7.570;2023-05-07T03:51:49;38.15;;;16.13;;
13269;SDS011;6703;51.994;7.570;2023-05-07T03:54:18;43.20;;;17.65;;
13269;SDS011;6703;51.994;7.570;2023-05-07T03:56:46;36.10;;;15.83;;
13269;SDS011;6703;51.994;7.570;2023-05-07T03:59:13;38.13;;;16.70;;
13269;SDS011;6703;51.994;7.570;2023-05-07T04:01:41;34.33;;;16.75;;
13269;SDS011;6703;51.994;7.570;2023-05-07T04:04:09;34.92;;;16.67;;
13269;SDS011;6703;51.994;7.570;2023-05-07T04:06:37;32.65;;;16.88;;
13269;SDS011;6703;51.994;7.570;2023-05-07T04:09:05;35.33;;;15.75;;
13269;SDS011;6703;51.994;7.570;2023-05-07T04:11:35;36.53;;;16.55;;
13269;SDS011;6703;51.994;7.570;2023-05-07T04:14:03;39.95;;;16.95;;
13269;SDS011;6703;51.994;7.570;2023-05-07T04:16:31;33.67;;;15.95;;
13269;SDS011;6703;51.994;7.570;2023-05-07T04:18:59;35.28;;;16.30;;
13269;SDS011;6703;51.994;7.570;2023-05-07T04:21:26;35.58;;;16.63;;
13269;SDS011;6703;51.994;7.570;2023-05-07T04:23:55;31.80;;;16.02;;
13269;SDS011;6703;51.994;7.570;2023-05-07T04:26:23;34.42;;;16.15;;
13269;SDS011;6703;51.994;7.570;2023-05-07T04:28:52;30.88;;;15.43;;
13269;SDS011;6703;51.994;7.570;2023-05-07T04:31:20;32.70;;;15.65;;
13269;SDS011;6703;51.994;7.570;2023-05-07T04:33:48;35.10;;;15.55;;
13269;SDS011;6703;51.994;7.570;2023-05-07T04:36:16;34.58;;;15.95;;
13269;SDS011;6703;51.994;7.570;2023-05-07T04:38:45;36.60;;;16.20;;
13269;SDS011;6703;51.994;7.570;2023-05-07T04:41:12;33.28;;;16.10;;
13269;SDS011;6703;51.994;7.570;2023-05-07T04:43:41;38.88;;;17.15;;
13269;SDS011;6703;51.994;7.570;2023-05-07T04:46:10;37.92;;;16.63;;
13269;SDS011;6703;51.994;7.570;2023-05-07T04:48:38;43.88;;;18.20;;
13269;SDS011;6703;51.994;7.570;2023-05-07T04:51:06;37.78;;;17.92;;
13269;SDS011;6703;51.994;7.570;2023-05-07T04:53:33;42.23;;;17.77;;
13269;SDS011;6703;51.994;7.570;2023-05-07T04:56:01;37.42;;;16.60;;
13269;SDS011;6703;51.994;7.570;2023-05-07T04:58:29;39.83;;;15.85;;
13269;SDS011;6703;51.994;7.570;2023-05-07T05:00:58;36.65;;;16.45;;
13269;SDS011;6703;51.994;7.570;2023-05-07T05:03:28;40.00;;;17.05;;
13269;SDS011;6703;51.994;7.570;2023-05-07T05:05:56;33.90;;;16.65;;
13269;SDS011;6703;51.994;7.570;2023-05-07T05:08:25;30.85;;;15.63;;
13269;SDS011;6703;51.994;7.570;2023-05-07T05:10:53;39.78;;;15.93;;
13269;SDS011;6703;51.994;7.570;2023-05-07T05:13:21;31.15;;;15.77;;
13269;SDS011;6703;51.994;7.570;2023-05-07T05:15:48;34.45;;;16.30;;
13269;SDS011;6703;51.994;7.570;2023-05-07T05:18:17;33.38;;;14.82;;
13269;SDS011;6703;51.994;7.570;2023-05-07T05:20:46;33.42;;;16.38;;
13269;SDS011;6703;51.994;7.570;2023-05-07T05:23:14;28.27;;;15.25;;
13269;SDS011;6703;51.994;7.570;2023-05-07T05:25:41;29.25;;;15.10;;
13269;SDS011;6703;51.994;7.570;2023-05-07T05:28:09;28.33;;;14.60;;
13269;SDS011;6703;51.994;7.570;2023-05-07T05:30:37;29.52;;;14.93;;
13269;SDS011;6703;51.994;7.570;2023-05-07T05:36:26;30.50;;;14.45;;
13269;SDS011;6703;51.994;7.570;2023-05-07T05:38:54;28.73;;;13.43;;
13269;SDS011;6703;51.994;7.570;2023-05-07T05:41:22;30.50;;;14.20;;
13269;SDS011;6703;51.994;7.570;2023-05-07T05:43:50;29.90;;;14.33;;
13269;SDS011;6703;51.994;7.570;2023-05-07T05:46:17;29.08;;;13.55;;
13269;SDS011;6703;51.994;7.570;2023-05-07T05:48:45;26.45;;;13.88;;
13269;SDS011;6703;51.994;7.570;2023-05-07T05:51:13;26.33;;;13.50;;
13269;SDS011;6703;51.994;7.570;2023-05-07T05:53:42;26.77;;;13.23;;
13269;SDS011;6703;51.994;7.570;2023-05-07T05:56:10;24.63;;;13.02;;
13269;SDS011;6703;51.994;7.570;2023-05-07T05:58:37;28.38;;;13.25;;
13269;SDS011;6703;51.994;7.570;2023-05-07T06:01:05;24.83;;;13.50;;
13269;SDS011;6703;51.994;7.570;2023-05-07T06:03:33;23.48;;;12.43;;
13269;SDS011;6703;51.994;7.570;2023-05-07T06:06:01;25.27;;;12.98;;
13269;SDS011;6703;51.994;7.570;2023-05-07T06:08:29;25.08;;;12.60;;
13269;SDS011;6703;51.994;7.570;2023-05-07T06:10:58;24.90;;;12.98;;
13269;SDS011;6703;51.994;7.570;2023-05-07T06:13:26;26.13;;;13.47;;
13269;SDS011;6703;51.994;7.570;2023-05-07T06:15:54;27.60;;;12.73;;
13269;SDS011;6703;51.994;7.570;2023-05-07T06:18:22;25.92;;;13.18;;
13269;SDS011;6703;51.994;7.570;2023-05-07T06:20:51;23.00;;;12.45;;
13269;SDS011;6703;51.994;7.570;2023-05-07T06:23:19;25.38;;;13.18;;
13269;SDS011;6703;51.994;7.570;2023-05-07T06:25:48;23.30;;;12.45;;
13269;SDS011;6703;51.994;7.570;2023-05-07T06:28:17;25.38;;;13.00;;
13269;SDS011;6703;51.994;7.570;2023-05-07T06:30:45;25.08;;;12.73;;
13269;SDS011;6703;51.994;7.570;2023-05-07T06:33:13;24.95;;;13.52;;
13269;SDS011;6703;51.994;7.570;2023-05-07T06:35:41;28.75;;;13.27;;
13269;SDS011;6703;51.994;7.570;2023-05-07T06:38:09;27.23;;;12.43;;
13269;SDS011;6703;51.994;7.570;2023-05-07T06:40:37;25.52;;;12.57;;
13269;SDS011;6703;51.994;7.570;2023-05-07T06:43:04;24.20;;;12.75;;
13269;SDS011;6703;51.994;7.570;2023-05-07T06:45:34;22.37;;;11.97;;
13269;SDS011;6703;51.994;7.570;2023-05-07T06:48:01;22.15;;;12.27;;
13269;SDS011;6703;51.994;7.570;2023-05-07T06:50:29;23.80;;;12.20;;
13269;SDS011;6703;51.994;7.570;2023-05-07T06:52:57;23.83;;;11.80;;
13269;SDS011;6703;51.994;7.570;2023-05-07T06:55:25;25.10;;;12.52;;
13269;SDS011;6703;51.994;7.570;2023-05-07T06:57:53;21.77;;;11.82;;
13269;SDS011;6703;51.994;7.570;2023-05-07T07:00:20;21.42;;;12.20;;
13269;SDS011;6703;51.994;7.570;2023-05-07T07:02:49;22.40;;;12.25;;
13269;SDS011;6703;51.994;7.570;2023-05-07T07:05:17;23.83;;;12.15;;
13269;SDS011;6703;51.994;7.570;2023-05-07T07:07:45;23.75;;;12.25;;
13269;SDS011;6703;51.994;7.570;2023-05-07T07:10:18;20.50;;;11.37;;
13269;SDS011;6703;51.994;7.570;2023-05-07T07:12:46;25.50;;;11.85;;
13269;SDS011;6703;51.994;7.570;2023-05-07T07:15:14;19.53;;;11.40;;
13269;SDS011;6703;51.994;7.570;2023-05-07T07:17:42;21.63;;;11.32;;
13269;SDS011;6703;51.994;7.570;2023-05-07T07:20:11;21.20;;;11.02;;
13269;SDS011;6703;51.994;7.570;2023-05-07T07:25:13;21.70;;;11.27;;
13269;SDS011;6703;51.994;7.570;2023-05-07T07:27:41;20.75;;;11.20;;
13269;SDS011;6703;51.994;7.570;2023-05-07T07:30:09;22.45;;;12.13;;
13269;SDS011;6703;51.994;7.570;2023-05-07T07:32:37;21.35;;;11.38;;
13269;SDS011;6703;51.994;7.570;2023-05-07T07:35:05;21.48;;;12.10;;
13269;SDS011;6703;51.994;7.570;2023-05-07T07:37:35;22.80;;;12.30;;
13269;SDS011;6703;51.994;7.570;2023-05-07T07:40:03;23.88;;;11.68;;
13269;SDS011;6703;51.994;7.570;2023-05-07T07:42:32;20.17;;;11.23;;
13269;SDS011;6703;51.994;7.570;2023-05-07T07:44:59;20.42;;;11.32;;
13269;SDS011;6703;51.994;7.570;2023-05-07T07:47:27;19.33;;;10.98;;
13269;SDS011;6703;51.994;7.570;2023-05-07T07:49:55;20.27;;;11.18;;
13269;SDS011;6703;51.994;7.570;2023-05-07T07:52:25;21.47;;;11.93;;
13269;SDS011;6703;51.994;7.570;2023-05-07T07:54:54;22.95;;;11.52;;
13269;SDS011;6703;51.994;7.570;2023-05-07T07:57:22;21.23;;;11.57;;
13269;SDS011;6703;51.994;7.570;2023-05-07T07:59:50;22.67;;;11.98;;
13269;SDS011;6703;51.994;7.570;2023-05-07T08:02:18;20.65;;;11.00;;
13269;SDS011;6703;51.994;7.570;2023-05-07T08:04:45;18.15;;;10.77;;
13269;SDS011;6703;51.994;7.570;2023-05-07T08:07:13;24.10;;;10.98;;
13269;SDS011;6703;51.994;7.570;2023-05-07T08:09:41;21.63;;;10.85;;
13269;SDS011;6703;51.994;7.570;2023-05-07T08:12:11;22.48;;;10.82;;
13269;SDS011;6703;51.994;7.570;2023-05-07T08:14:38;19.90;;;10.95;;
13269;SDS011;6703;51.994;7.570;2023-05-07T08:17:06;20.67;;;11.27;;
13269;SDS011;6703;51.994;7.570;2023-05-07T08:19:36;21.90;;;11.25;;
13269;SDS011;6703;51.994;7.570;2023-05-07T08:22:04;21.02;;;11.05;;
13269;SDS011;6703;51.994;7.570;2023-05-07T08:24:31;20.20;;;10.70;;
13269;SDS011;6703;51.994;7.570;2023-05-07T08:27:19;24.00;;;11.87;;
13269;SDS011;6703;51.994;7.570;2023-05-07T08:29:46;20.75;;;10.90;;
13269;SDS011;6703;51.994;7.570;2023-05-07T08:32:15;24.15;;;11.15;;
13269;SDS011;6703;51.994;7.570;2023-05-07T08:34:42;24.50;;;11.32;;
13269;SDS011;6703;51.994;7.570;2023-05-07T08:37:18;21.45;;;10.60;;
13269;SDS011;6703;51.994;7.570;2023-05-07T08:39:46;23.75;;;10.73;;
13269;SDS011;6703;51.994;7.570;2023-05-07T08:42:13;19.35;;;10.60;;
13269;SDS011;6703;51.994;7.570;2023-05-07T08:44:45;18.23;;;10.73;;
13269;SDS011;6703;51.994;7.570;2023-05-07T08:47:14;21.13;;;10.38;;
13269;SDS011;6703;51.994;7.570;2023-05-07T08:49:42;21.15;;;10.23;;
13269;SDS011;6703;51.994;7.570;2023-05-07T08:52:11;19.45;;;10.57;;
13269;SDS011;6703;51.994;7.570;2023-05-07T08:54:39;18.70;;;10.60;;
13269;SDS011;6703;51.994;7.570;2023-05-07T08:57:07;19.65;;;10.40;;
13269;SDS011;6703;51.994;7.570;2023-05-07T08:59:35;23.50;;;10.38;;
13269;SDS011;6703;51.994;7.570;2023-05-07T09:02:04;20.55;;;10.63;;
13269;SDS011;6703;51.994;7.570;2023-05-07T09:04:35;18.98;;;10.40;;
13269;SDS011;6703;51.994;7.570;2023-05-07T09:07:03;21.40;;;9.98;;
13269;SDS011;6703;51.994;7.570;2023-05-07T09:09:32;18.27;;;9.80;;
13269;SDS011;6703;51.994;7.570;2023-05-07T09:11:59;18.10;;;10.10;;
13269;SDS011;6703;51.994;7.570;2023-05-07T09:14:28;19.02;;;9.75;;
13269;SDS011;6703;51.994;7.570;2023-05-07T09:16:56;18.73;;;9.43;;
13269;SDS011;6703;51.994;7.570;2023-05-07T09:19:25;21.98;;;9.70;;
13269;SDS011;6703;51.994;7.570;2023-05-07T09:21:59;20.67;;;10.13;;
13269;SDS011;6703;51.994;7.570;2023-05-07T09:24:27;19.03;;;10.10;;
13269;SDS011;6703;51.994;7.570;2023-05-07T09:27:00;17.83;;;9.93;;
13269;SDS011;6703;51.994;7.570;2023-05-07T09:29:28;17.53;;;9.50;;
13269;SDS011;6703;51.994;7.570;2023-05-07T09:32:01;18.70;;;9.45;;
13269;SDS011;6703;51.994;7.570;2023-05-07T09:34:31;18.10;;;9.30;;
13269;SDS011;6703;51.994;7.570;2023-05-07T09:37:00;17.77;;;9.52;;
13269;SDS011;6703;51.994;7.570;2023-05-07T09:39:37;17.50;;;9.20;;
13269;SDS011;6703;51.994;7.570;2023-05-07T09:42:06;19.63;;;9.73;;
13269;SDS011;6703;51.994;7.570;2023-05-07T09:44:34;19.08;;;9.65;;
13269;SDS011;6703;51.994;7.570;2023-05-07T09:47:23;19.77;;;10.10;;
13269;SDS011;6703;51.994;7.570;2023-05-07T09:49:55;19.60;;;9.45;;
13269;SDS011;6703;51.994;7.570;2023-05-07T09:52:24;19.30;;;9.60;;
13269;SDS011;6703;51.994;7.570;2023-05-07T09:54:54;18.10;;;8.80;;
13269;SDS011;6703;51.994;7.570;2023-05-07T09:57:25;19.25;;;9.45;;
13269;SDS011;6703;51.994;7.570;2023-05-07T09:59:53;17.63;;;9.60;;
13269;SDS011;6703;51.994;7.570;2023-05-07T10:02:21;16.33;;;9.10;;
13269;SDS011;6703;51.994;7.570;2023-05-07T10:04:58;17.88;;;9.18;;
13269;SDS011;6703;51.994;7.570;2023-05-07T10:07:28;15.23;;;8.75;;
13269;SDS011;6703;51.994;7.570;2023-05-07T10:09:56;16.85;;;8.73;;
13269;SDS011;6703;51.994;7.570;2023-05-07T10:12:24;15.80;;;8.90;;
13269;SDS011;6703;51.994;7.570;2023-05-07T10:14:52;17.58;;;8.60;;
13269;SDS011;6703;51.994;7.570;2023-05-07T10:17:20;15.95;;;8.30;;
13269;SDS011;6703;51.994;7.570;2023-05-07T10:19:48;14.35;;;8.57;;
13269;SDS011;6703;51.994;7.570;2023-05-07T10:22:18;17.83;;;9.50;;
13269;SDS011;6703;51.994;7.570;2023-05-07T10:24:46;14.82;;;8.27;;
13269;SDS011;6703;51.994;7.570;2023-05-07T10:27:16;13.53;;;8.13;;
13269;SDS011;6703;51.994;7.570;2023-05-07T10:29:45;15.15;;;8.40;;
13269;SDS011;6703;51.994;7.570;2023-05-07T10:32:30;18.70;;;8.30;;
13269;SDS011;6703;51.994;7.570;2023-05-07T10:35:03;16.88;;;8.35;;
13269;SDS011;6703;51.994;7.570;2023-05-07T10:37:37;15.57;;;7.67;;
13269;SDS011;6703;51.994;7.570;2023-05-07T10:40:05;14.73;;;8.40;;
13269;SDS011;6703;51.994;7.570;2023-05-07T10:42:34;13.75;;;7.22;;
13269;SDS011;6703;51.994;7.570;2023-05-07T10:45:11;17.08;;;7.55;;
13269;SDS011;6703;51.994;7.570;2023-05-07T10:50:41;12.95;;;7.25;;
13269;SDS011;6703;51.994;7.570;2023-05-07T10:53:24;14.13;;;7.22;;
13269;SDS011;6703;51.994;7.570;2023-05-07T10:58:54;11.98;;;6.75;;
13269;SDS011;6703;51.994;7.570;2023-05-07T11:04:18;11.23;;;6.55;;
13269;SDS011;6703;51.994;7.570;2023-05-07T11:09:55;15.05;;;7.25;;
13269;SDS011;6703;51.994;7.570;2023-05-07T11:15:33;11.25;;;6.60;;
13269;SDS011;6703;51.994;7.570;2023-05-07T11:18:05;11.18;;;6.43;;
13269;SDS011;6703;51.994;7.570;2023-05-07T11:20:46;10.13;;;6.13;;
13269;SDS011;6703;51.994;7.570;2023-05-07T11:26:26;11.38;;;5.68;;
13269;SDS011;6703;51.994;7.570;2023-05-07T11:29:10;11.02;;;6.35;;
13269;SDS011;6703;51.994;7.570;2023-05-07T11:31:38;12.52;;;6.85;;
13269;SDS011;6703;51.994;7.570;2023-05-07T11:34:06;12.10;;;6.68;;
13269;SDS011;6703;51.994;7.570;2023-05-07T11:36:34;10.37;;;6.07;;
13269;SDS011;6703;51.994;7.570;2023-05-07T11:39:02;9.75;;;5.65;;
13269;SDS011;6703;51.994;7.570;2023-05-07T11:41:34;11.20;;;5.75;;
13269;SDS011;6703;51.994;7.570;2023-05-07T11:44:03;10.63;;;5.55;;
13269;SDS011;6703;51.994;7.570;2023-05-07T11:46:31;9.52;;;5.43;;
13269;SDS011;6703;51.994;7.570;2023-05-07T11:49:00;8.23;;;5.50;;
13269;SDS011;6703;51.994;7.570;2023-05-07T11:51:28;9.13;;;5.00;;
13269;SDS011;6703;51.994;7.570;2023-05-07T11:53:56;8.02;;;4.78;;
13269;SDS011;6703;51.994;7.570;2023-05-07T11:56:23;7.88;;;4.63;;
13269;SDS011;6703;51.994;7.570;2023-05-07T11:58:53;10.90;;;4.97;;
13269;SDS011;6703;51.994;7.570;2023-05-07T12:01:21;7.22;;;4.13;;
13269;SDS011;6703;51.994;7.570;2023-05-07T12:03:48;8.25;;;4.53;;
13269;SDS011;6703;51.994;7.570;2023-05-07T12:06:17;9.77;;;4.32;;
13269;SDS011;6703;51.994;7.570;2023-05-07T12:08:45;7.45;;;4.10;;
13269;SDS011;6703;51.994;7.570;2023-05-07T12:11:14;9.00;;;4.25;;
13269;SDS011;6703;51.994;7.570;2023-05-07T12:13:57;7.03;;;4.28;;
13269;SDS011;6703;51.994;7.570;2023-05-07T12:16:25;9.00;;;4.13;;
13269;SDS011;6703;51.994;7.570;2023-05-07T12:18:53;5.97;;;4.10;;
13269;SDS011;6703;51.994;7.570;2023-05-07T12:21:22;6.35;;;3.40;;
13269;SDS011;6703;51.994;7.570;2023-05-07T12:23:51;6.60;;;3.67;;
13269;SDS011;6703;51.994;7.570;2023-05-07T12:26:19;7.40;;;4.00;;
13269;SDS011;6703;51.994;7.570;2023-05-07T12:28:47;7.38;;;4.00;;
13269;SDS011;6703;51.994;7.570;2023-05-07T12:31:17;6.07;;;3.50;;
13269;SDS011;6703;51.994;7.570;2023-05-07T12:33:45;5.95;;;3.15;;
13269;SDS011;6703;51.994;7.570;2023-05-07T12:36:12;7.25;;;3.25;;
13269;SDS011;6703;51.994;7.570;2023-05-07T12:38:40;5.60;;;3.10;;
13269;SDS011;6703;51.994;7.570;2023-05-07T12:41:09;4.80;;;2.92;;
13269;SDS011;6703;51.994;7.570;2023-05-07T12:43:38;6.15;;;3.30;;
13269;SDS011;6703;51.994;7.570;2023-05-07T12:46:06;6.82;;;3.90;;
13269;SDS011;6703;51.994;7.570;2023-05-07T12:48:37;8.23;;;3.67;;
13269;SDS011;6703;51.994;7.570;2023-05-07T12:51:06;6.38;;;3.78;;
13269;SDS011;6703;51.994;7.570;2023-05-07T12:53:39;5.40;;;3.75;;
13269;SDS011;6703;51.994;7.570;2023-05-07T12:56:07;5.93;;;3.55;;
13269;SDS011;6703;51.994;7.570;2023-05-07T12:58:35;5.20;;;3.50;;
13269;SDS011;6703;51.994;7.570;2023-05-07T13:01:04;7.43;;;3.83;;
13269;SDS011;6703;51.994;7.570;2023-05-07T13:03:33;5.22;;;3.40;;
13269;SDS011;6703;51.994;7.570;2023-05-07T13:06:04;6.20;;;3.40;;
13269;SDS011;6703;51.994;7.570;2023-05-07T13:08:33;7.50;;;3.10;;
13269;SDS011;6703;51.994;7.570;2023-05-07T13:11:02;4.10;;;3.17;;
13269;SDS011;6703;51.994;7.570;2023-05-07T13:13:32;6.57;;;3.83;;
13269;SDS011;6703;51.994;7.570;2023-05-07T13:16:00;4.53;;;3.10;;
13269;SDS011;6703;51.994;7.570;2023-05-07T13:18:29;5.13;;;3.55;;
13269;SDS011;6703;51.994;7.570;2023-05-07T13:23:34;5.33;;;3.13;;
13269;SDS011;6703;51.994;7.570;2023-05-07T13:26:04;4.53;;;3.38;;
13269;SDS011;6703;51.994;7.570;2023-05-07T13:28:51;6.03;;;2.97;;
13269;SDS011;6703;51.994;7.570;2023-05-07T13:31:19;7.30;;;3.13;;
13269;SDS011;6703;51.994;7.570;2023-05-07T13:33:47;4.15;;;3.05;;
13269;SDS011;6703;51.994;7.570;2023-05-07T13:36:14;6.07;;;3.25;;
13269;SDS011;6703;51.994;7.570;2023-05-07T13:38:44;6.77;;;3.33;;
13269;SDS011;6703;51.994;7.570;2023-05-07T13:41:12;5.45;;;3.10;;
13269;SDS011;6703;51.994;7.570;2023-05-07T13:43:41;5.03;;;3.25;;
13269;SDS011;6703;51.994;7.570;2023-05-07T13:46:08;5.00;;;3.47;;
13269;SDS011;6703;51.994;7.570;2023-05-07T13:48:36;5.18;;;3.45;;
13269;SDS011;6703;51.994;7.570;2023-05-07T13:51:04;6.30;;;3.08;;
13269;SDS011;6703;51.994;7.570;2023-05-07T13:53:31;5.72;;;3.60;;
13269;SDS011;6703;51.994;7.570;2023-05-07T13:56:00;5.63;;;3.53;;
13269;SDS011;6703;51.994;7.570;2023-05-07T13:58:30;6.55;;;4.18;;
13269;SDS011;6703;51.994;7.570;2023-05-07T14:00:59;5.07;;;3.20;;
13269;SDS011;6703;51.994;7.570;2023-05-07T14:03:26;4.30;;;3.10;;
13269;SDS011;6703;51.994;7.570;2023-05-07T14:05:54;5.10;;;3.20;;
13269;SDS011;6703;51.994;7.570;2023-05-07T14:08:23;8.23;;;3.78;;
13269;SDS011;6703;51.994;7.570;2023-05-07T14:10:51;6.43;;;3.63;;
13269;SDS011;6703;51.994;7.570;2023-05-07T14:13:20;5.57;;;3.70;;
13269;SDS011;6703;51.994;7.570;2023-05-07T14:15:48;6.43;;;3.70;;
13269;SDS011;6703;51.994;7.570;2023-05-07T14:18:16;6.35;;;3.75;;
13269;SDS011;6703;51.994;7.570;2023-05-07T14:20:44;5.20;;;3.58;;
13269;SDS011;6703;51.994;7.570;2023-05-07T14:23:13;6.10;;;3.58;;
13269;SDS011;6703;51.994;7.570;2023-05-07T14:25:43;7.95;;;4.60;;
13269;SDS011;6703;51.994;7.570;2023-05-07T14:28:13;7.57;;;4.47;;
13269;SDS011;6703;51.994;7.570;2023-05-07T14:30:42;6.35;;;3.80;;
13269;SDS011;6703;51.994;7.570;2023-05-07T14:33:10;8.35;;;3.33;;
13269;SDS011;6703;51.994;7.570;2023-05-07T14:35:38;10.40;;;4.40;;
13269;SDS011;6703;51.994;7.570;2023-05-07T14:38:07;6.68;;;3.80;;
13269;SDS011;6703;51.994;7.570;2023-05-07T14:40:35;6.82;;;4.28;;
13269;SDS011;6703;51.994;7.570;2023-05-07T14:43:03;5.38;;;3.20;;
13269;SDS011;6703;51.994;7.570;2023-05-07T14:45:31;6.25;;;3.78;;
13269;SDS011;6703;51.994;7.570;2023-05-07T14:48:00;6.37;;;3.93;;
13269;SDS011;6703;51.994;7.570;2023-05-07T14:50:28;8.10;;;3.60;;
13269;SDS011;6703;51.994;7.570;2023-05-07T14:52:56;7.67;;;3.93;;
13269;SDS011;6703;51.994;7.570;2023-05-07T14:55:23;6.75;;;3.85;;
13269;SDS011;6703;51.994;7.570;2023-05-07T14:57:51;8.50;;;3.78;;
13269;SDS011;6703;51.994;7.570;2023-05-07T15:00:19;6.22;;;3.30;;
13269;SDS011;6703;51.994;7.570;2023-05-07T15:02:47;6.78;;;3.65;;
13269;SDS011;6703;51.994;7.570;2023-05-07T15:05:16;6.13;;;3.40;;
13269;SDS011;6703;51.994;7.570;2023-05-07T15:07:45;5.88;;;3.40;;
13269;SDS011;6703;51.994;7.570;2023-05-07T15:10:13;6.28;;;3.83;;
13269;SDS011;6703;51.994;7.570;2023-05-07T15:12:42;6.95;;;3.47;;
13269;SDS011;6703;51.994;7.570;2023-05-07T15:15:10;5.22;;;3.25;;
13269;SDS011;6703;51.994;7.570;2023-05-07T15:17:38;6.87;;;3.30;;
13269;SDS011;6703;51.994;7.570;2023-05-07T15:20:06;5.95;;;3.20;;
13269;SDS011;6703;51.994;7.570;2023-05-07T15:22:37;4.97;;;3.40;;
13269;SDS011;6703;51.994;7.570;2023-05-07T15:25:05;7.68;;;3.50;;